createdAt,value
2022-07-31T00:00:25.976Z,5.87
2022-07-31T00:02:53.186Z,7.00
2022-07-31T00:05:20.363Z,5.83
2022-07-31T00:07:47.584Z,6.63
2022-07-31T00:10:15.010Z,4.93
2022-07-31T00:12:42.140Z,5.23
2022-07-31T00:15:11.055Z,5.63
2022-07-31T00:17:39.206Z,6.03
2022-07-31T00:20:07.128Z,7.10
2022-07-31T00:22:35.638Z,7.10
2022-07-31T00:25:02.821Z,7.07
2022-07-31T00:27:30.064Z,5.60
2022-07-31T00:29:57.216Z,6.10
2022-07-31T00:32:27.148Z,6.70
2022-07-31T00:34:54.282Z,7.10
2022-07-31T00:37:21.687Z,6.90
2022-07-31T00:39:49.631Z,6.37
2022-07-31T00:42:21.502Z,5.27
2022-07-31T00:44:49.465Z,5.97
2022-07-31T00:47:17.937Z,7.10
2022-07-31T00:49:51.593Z,4.23
2022-07-31T00:52:18.806Z,8.37
2022-07-31T00:54:45.996Z,4.60
2022-07-31T00:57:13.224Z,4.10
2022-07-31T00:59:40.339Z,5.37
2022-07-31T01:02:10.487Z,5.00
2022-07-31T01:04:37.620Z,5.60
2022-07-31T01:07:08.704Z,6.20
2022-07-31T01:09:35.866Z,5.33
2022-07-31T01:12:18.898Z,6.00
2022-07-31T01:14:57.083Z,5.83
2022-07-31T01:17:27.509Z,7.70
2022-07-31T01:19:55.056Z,6.77
2022-07-31T01:22:43.360Z,5.73
2022-07-31T01:25:33.397Z,7.10
2022-07-31T01:28:42.539Z,7.80
2022-07-31T01:31:26.830Z,8.17
2022-07-31T01:34:02.735Z,5.43
2022-07-31T01:36:35.190Z,9.30
2022-07-31T01:39:03.746Z,6.90
2022-07-31T01:41:38.042Z,7.80
2022-07-31T01:44:07.317Z,6.50
2022-07-31T01:46:43.857Z,7.30
2022-07-31T01:49:13.099Z,6.20
2022-07-31T01:51:43.217Z,6.00
2022-07-31T01:54:12.703Z,7.60
2022-07-31T01:56:41.108Z,6.47
2022-07-31T01:59:20.607Z,6.00
2022-07-31T02:01:51.517Z,6.57
2022-07-31T02:04:20.839Z,7.80
2022-07-31T02:06:51.584Z,5.80
2022-07-31T02:09:20.611Z,6.83
2022-07-31T02:11:54.869Z,7.10
2022-07-31T02:14:23.020Z,6.00
2022-07-31T02:16:50.540Z,5.70
2022-07-31T02:19:19.369Z,6.33
2022-07-31T02:21:46.646Z,5.87
2022-07-31T02:24:13.945Z,6.47
2022-07-31T02:26:41.498Z,5.90
2022-07-31T02:29:19.809Z,5.53
2022-07-31T02:32:02.875Z,5.30
2022-07-31T02:34:32.583Z,5.97
2022-07-31T02:37:01.877Z,5.63
2022-07-31T02:39:32.185Z,5.67
2022-07-31T02:42:02.114Z,5.43
2022-07-31T02:44:32.509Z,6.10
2022-07-31T02:47:02.675Z,5.13
2022-07-31T02:49:33.506Z,6.07
2022-07-31T02:52:01.169Z,6.03
2022-07-31T02:54:28.612Z,6.57
2022-07-31T02:56:56.588Z,7.20
2022-07-31T02:59:24.030Z,5.90
2022-07-31T03:01:51.198Z,7.80
2022-07-31T03:04:18.383Z,5.80
2022-07-31T03:06:45.520Z,8.97
2022-07-31T03:09:13.039Z,8.57
2022-07-31T03:11:40.916Z,7.23
2022-07-31T03:14:10.767Z,7.30
2022-07-31T03:16:39.563Z,7.77
2022-07-31T03:19:08.875Z,8.27
2022-07-31T03:21:36.281Z,8.00
2022-07-31T03:24:04.460Z,8.60
2022-07-31T03:26:31.688Z,7.23
2022-07-31T03:29:01.186Z,8.57
2022-07-31T03:31:28.608Z,7.03
2022-07-31T03:33:56.196Z,6.80
2022-07-31T03:36:23.609Z,7.17
2022-07-31T03:38:50.949Z,7.93
2022-07-31T03:41:18.126Z,7.27
2022-07-31T03:43:48.593Z,7.50
2022-07-31T03:46:18.818Z,7.27
2022-07-31T03:48:47.564Z,6.07
2022-07-31T03:51:15.766Z,13.20
2022-07-31T03:53:44.538Z,7.53
2022-07-31T03:56:12.434Z,8.40
2022-07-31T03:58:40.103Z,7.33
2022-07-31T04:01:10.550Z,7.17
2022-07-31T04:03:39.656Z,6.10
2022-07-31T04:06:07.107Z,6.40
2022-07-31T04:08:34.585Z,7.53
2022-07-31T04:11:01.790Z,14.50
2022-07-31T04:13:28.975Z,6.80
2022-07-31T04:15:56.120Z,6.17
2022-07-31T04:18:23.271Z,7.47
2022-07-31T04:20:50.396Z,6.23
2022-07-31T04:23:17.559Z,6.60
2022-07-31T04:25:44.758Z,7.50
2022-07-31T04:28:11.932Z,8.43
2022-07-31T04:30:39.876Z,7.80
2022-07-31T04:33:06.955Z,6.50
2022-07-31T04:35:34.188Z,6.90
2022-07-31T04:38:01.708Z,7.67
2022-07-31T04:40:28.833Z,7.00
2022-07-31T04:42:55.967Z,7.30
2022-07-31T04:45:23.139Z,6.93
2022-07-31T04:47:50.307Z,7.63
2022-07-31T04:50:17.514Z,7.40
2022-07-31T04:52:44.662Z,9.07
2022-07-31T04:55:11.763Z,9.03
2022-07-31T04:57:38.939Z,8.10
2022-07-31T05:00:07.071Z,9.30
2022-07-31T05:02:34.197Z,7.67
2022-07-31T05:05:01.658Z,8.20
2022-07-31T05:07:29.200Z,8.73
2022-07-31T05:09:57.263Z,8.40
2022-07-31T05:12:24.542Z,7.40
2022-07-31T05:14:51.798Z,10.43
2022-07-31T05:17:19.129Z,7.63
2022-07-31T05:19:46.288Z,7.13
2022-07-31T05:22:13.677Z,13.30
2022-07-31T05:24:43.179Z,7.70
2022-07-31T05:27:10.648Z,8.37
2022-07-31T05:29:38.036Z,8.33
2022-07-31T05:32:05.411Z,8.40
2022-07-31T05:34:32.588Z,8.77
2022-07-31T05:37:03.936Z,9.93
2022-07-31T05:39:31.523Z,7.97
2022-07-31T05:41:58.691Z,8.77
2022-07-31T05:44:26.115Z,11.60
2022-07-31T05:49:20.144Z,8.73
2022-07-31T05:51:47.806Z,8.23
2022-07-31T05:54:15.318Z,8.10
2022-07-31T05:56:42.885Z,7.20
2022-07-31T05:59:10.244Z,8.63
2022-07-31T06:01:37.966Z,8.00
2022-07-31T06:04:05.328Z,7.07
2022-07-31T06:06:32.487Z,6.57
2022-07-31T06:09:04.406Z,7.80
2022-07-31T06:11:32.438Z,7.00
2022-07-31T06:13:59.834Z,6.67
2022-07-31T06:16:27.034Z,8.03
2022-07-31T06:18:54.186Z,7.20
2022-07-31T06:23:47.282Z,8.10
2022-07-31T06:26:15.273Z,10.10
2022-07-31T06:28:48.560Z,9.77
2022-07-31T06:31:21.427Z,7.50
2022-07-31T06:33:50.108Z,6.43
2022-07-31T06:36:18.816Z,5.67
2022-07-31T06:38:46.323Z,5.40
2022-07-31T06:41:34.531Z,7.30
2022-07-31T06:44:01.747Z,8.17
2022-07-31T06:46:28.886Z,4.60
2022-07-31T06:48:56.072Z,5.30
2022-07-31T06:51:31.861Z,6.03
2022-07-31T06:54:04.415Z,4.67
2022-07-31T06:56:32.246Z,5.00
2022-07-31T06:58:59.743Z,4.07
2022-07-31T07:01:26.989Z,3.30
2022-07-31T07:03:54.801Z,5.70
2022-07-31T07:06:22.253Z,5.60
2022-07-31T07:08:49.887Z,394.97
2022-07-31T07:11:17.689Z,148.40
2022-07-31T07:13:46.834Z,97.17
2022-07-31T07:16:15.168Z,127.80
2022-07-31T07:18:43.459Z,55.10
2022-07-31T07:21:11.259Z,39.07
2022-07-31T07:23:38.762Z,51.60
2022-07-31T07:26:06.439Z,33.70
2022-07-31T07:28:34.108Z,30.27
2022-07-31T07:31:02.500Z,33.03
2022-07-31T07:33:41.533Z,33.50
2022-07-31T07:36:22.705Z,36.23
2022-07-31T07:38:54.801Z,25.50
2022-07-31T07:41:23.668Z,29.27
2022-07-31T07:43:54.536Z,27.70
2022-07-31T07:46:25.608Z,18.97
2022-07-31T07:48:54.106Z,21.27
2022-07-31T07:51:21.410Z,18.20
2022-07-31T07:53:49.189Z,10.47
2022-07-31T07:56:17.047Z,18.97
2022-07-31T07:58:44.198Z,15.53
2022-07-31T08:01:11.446Z,12.07
2022-07-31T08:03:49.687Z,16.00
2022-07-31T08:06:20.443Z,9.90
2022-07-31T08:08:47.924Z,14.27
2022-07-31T08:11:17.027Z,5.90
2022-07-31T08:13:51.042Z,6.80
2022-07-31T08:16:21.812Z,30.50
2022-07-31T08:18:50.108Z,15.63
2022-07-31T08:21:17.536Z,4.37
2022-07-31T08:23:44.756Z,5.90
2022-07-31T08:26:14.014Z,4.40
2022-07-31T08:28:50.673Z,6.00
2022-07-31T08:31:20.072Z,7.73
2022-07-31T08:33:47.757Z,6.47
2022-07-31T08:36:15.067Z,3.53
2022-07-31T08:38:42.256Z,5.07
2022-07-31T08:41:09.410Z,4.53
2022-07-31T08:44:01.648Z,4.40
2022-07-31T08:46:24.183Z,20.43
2022-07-31T08:48:57.401Z,7.83
2022-07-31T08:51:25.236Z,4.60
2022-07-31T08:53:53.280Z,6.93
2022-07-31T08:56:21.915Z,3.47
2022-07-31T08:58:49.149Z,24.53
2022-07-31T09:01:16.470Z,5.77
2022-07-31T09:03:43.807Z,4.83
2022-07-31T09:06:11.174Z,6.07
2022-07-31T09:08:38.922Z,5.87
2022-07-31T09:11:08.518Z,12.27
2022-07-31T09:13:36.140Z,4.17
2022-07-31T09:16:04.353Z,3.93
2022-07-31T09:18:31.571Z,5.40
2022-07-31T09:21:04.621Z,8.13
2022-07-31T09:23:32.407Z,9.10
2022-07-31T09:26:00.714Z,3.33
2022-07-31T09:28:36.802Z,4.67
2022-07-31T09:31:07.259Z,6.60
2022-07-31T09:33:36.730Z,19.07
2022-07-31T09:36:04.932Z,8.33
2022-07-31T09:38:39.867Z,3.30
2022-07-31T09:41:58.312Z,3.73
2022-07-31T09:44:10.053Z,2.20
2022-07-31T09:46:46.248Z,4.80
2022-07-31T09:49:14.323Z,6.40
2022-07-31T09:51:43.657Z,2.63
2022-07-31T09:54:25.590Z,4.93
2022-07-31T09:56:53.118Z,7.50
2022-07-31T09:59:20.448Z,4.33
2022-07-31T10:01:49.186Z,2.27
2022-07-31T10:04:21.985Z,2.30
2022-07-31T10:06:51.031Z,4.87
2022-07-31T10:09:21.863Z,3.43
2022-07-31T10:11:52.264Z,2.67
2022-07-31T10:14:24.283Z,8.63
2022-07-31T10:16:55.161Z,3.57
2022-07-31T10:19:23.408Z,4.53
2022-07-31T10:21:59.846Z,2.83
2022-07-31T10:24:28.880Z,2.20
2022-07-31T10:27:03.889Z,2.00
2022-07-31T10:29:39.508Z,2.93
2022-07-31T10:32:08.518Z,5.67
2022-07-31T10:34:36.681Z,9.00
2022-07-31T10:37:13.519Z,2.83
2022-07-31T10:40:01.937Z,2.30
2022-07-31T10:43:03.126Z,2.20
2022-07-31T10:45:31.951Z,2.60
2022-07-31T10:48:01.299Z,2.60
2022-07-31T10:50:31.658Z,4.70
2022-07-31T10:53:17.568Z,4.60
2022-07-31T10:55:45.237Z,2.60
2022-07-31T10:58:19.704Z,5.57
2022-07-31T11:00:46.876Z,4.23
2022-07-31T11:03:18.559Z,6.20
2022-07-31T11:06:01.674Z,2.33
2022-07-31T11:08:40.735Z,14.23
2022-07-31T11:11:07.976Z,3.37
2022-07-31T11:13:58.153Z,2.60
2022-07-31T11:16:25.383Z,2.53
2022-07-31T11:19:04.188Z,4.93
2022-07-31T11:21:40.336Z,4.43
2022-07-31T11:24:17.757Z,2.33
2022-07-31T11:27:00.204Z,4.33
2022-07-31T11:30:01.612Z,3.50
2022-07-31T11:32:25.331Z,3.10
2022-07-31T11:34:57.533Z,4.30
2022-07-31T11:37:25.935Z,3.50
2022-07-31T11:40:02.006Z,7.70
2022-07-31T11:42:33.228Z,3.80
2022-07-31T11:45:10.879Z,11.63
2022-07-31T11:48:10.777Z,3.50
2022-07-31T11:50:42.756Z,3.20
2022-07-31T11:53:10.791Z,10.83
2022-07-31T11:55:51.146Z,10.53
2022-07-31T11:58:20.527Z,7.27
2022-07-31T12:00:53.583Z,12.00
2022-07-31T12:03:29.396Z,5.43
2022-07-31T12:05:56.792Z,3.93
2022-07-31T12:08:24.924Z,6.07
2022-07-31T12:10:54.268Z,6.87
2022-07-31T12:13:23.469Z,3.57
2022-07-31T12:16:07.761Z,3.07
2022-07-31T12:18:47.856Z,3.47
2022-07-31T12:21:15.937Z,3.23
2022-07-31T12:23:46.533Z,4.87
2022-07-31T12:26:28.764Z,4.10
2022-07-31T12:28:59.997Z,3.07
2022-07-31T12:31:28.534Z,2.50
2022-07-31T12:33:58.919Z,6.47
2022-07-31T12:36:26.011Z,3.77
2022-07-31T12:39:04.318Z,4.03
2022-07-31T12:41:41.263Z,2.80
2022-07-31T12:44:14.413Z,3.17
2022-07-31T12:46:42.041Z,4.70
2022-07-31T12:49:09.582Z,4.03
2022-07-31T12:51:45.111Z,2.67
2022-07-31T12:54:18.016Z,3.53
2022-07-31T12:56:46.860Z,2.83
2022-07-31T12:59:14.400Z,2.77
2022-07-31T13:01:41.832Z,4.60
2022-07-31T13:04:19.077Z,2.40
2022-07-31T13:07:00.582Z,2.27
2022-07-31T13:09:27.935Z,2.40
2022-07-31T13:11:57.907Z,5.40
2022-07-31T13:14:25.655Z,4.70
2022-07-31T13:16:53.913Z,2.73
2022-07-31T13:19:21.434Z,7.77
2022-07-31T13:21:51.662Z,3.00
2022-07-31T13:24:20.200Z,5.53
2022-07-31T13:26:50.863Z,3.40
2022-07-31T13:29:18.059Z,4.07
2022-07-31T13:31:45.539Z,2.63
2022-07-31T13:34:13.094Z,4.40
2022-07-31T13:36:40.396Z,2.70
2022-07-31T13:39:11.007Z,3.20
2022-07-31T13:41:39.702Z,6.67
2022-07-31T13:44:07.920Z,6.57
2022-07-31T13:46:35.405Z,23.63
2022-07-31T13:49:04.104Z,29.93
2022-07-31T13:51:31.378Z,21.87
2022-07-31T13:53:58.563Z,3.00
2022-07-31T13:56:39.711Z,7.33
2022-07-31T13:59:11.978Z,9.67
2022-07-31T14:02:03.579Z,7.03
2022-07-31T14:04:30.347Z,8.93
2022-07-31T14:07:01.369Z,10.60
2022-07-31T14:09:34.279Z,5.87
2022-07-31T14:12:03.797Z,6.17
2022-07-31T14:14:32.318Z,2.80
2022-07-31T14:16:59.725Z,3.93
2022-07-31T14:19:26.945Z,3.00
2022-07-31T14:21:56.952Z,5.00
2022-07-31T14:24:38.614Z,2.43
2022-07-31T14:27:05.802Z,5.53
2022-07-31T14:29:33.089Z,42.43
2022-07-31T14:32:03.724Z,136.83
2022-07-31T14:34:35.327Z,20.97
2022-07-31T14:37:03.792Z,8.00
2022-07-31T14:39:31.312Z,6.27
2022-07-31T14:41:58.549Z,4.40
2022-07-31T14:44:29.039Z,5.47
2022-07-31T14:46:56.406Z,7.13
2022-07-31T14:49:23.714Z,5.13
2022-07-31T14:51:50.912Z,29.33
2022-07-31T14:54:18.046Z,34.03
2022-07-31T14:57:00.699Z,6.97
2022-07-31T14:59:31.995Z,3.90
2022-07-31T15:01:59.733Z,5.53
2022-07-31T15:04:26.925Z,5.03
2022-07-31T15:07:07.908Z,4.13
2022-07-31T15:09:41.246Z,8.97
2022-07-31T15:12:08.890Z,3.87
2022-07-31T15:14:35.980Z,3.40
2022-07-31T15:17:03.467Z,4.47
2022-07-31T15:19:33.622Z,4.70
2022-07-31T15:22:15.721Z,5.43
2022-07-31T15:24:48.874Z,5.53
2022-07-31T15:27:18.379Z,4.77
2022-07-31T15:30:03.611Z,7.93
2022-07-31T15:32:32.970Z,5.03
2022-07-31T15:35:00.094Z,4.33
2022-07-31T15:37:27.281Z,5.13
2022-07-31T15:40:02.881Z,6.83
2022-07-31T15:42:37.224Z,5.97
2022-07-31T15:45:05.009Z,5.43
2022-07-31T15:47:32.184Z,4.93
2022-07-31T15:49:59.409Z,7.40
2022-07-31T15:52:26.658Z,6.57
2022-07-31T15:54:54.086Z,6.17
2022-07-31T15:57:23.177Z,6.60
2022-07-31T15:59:51.108Z,6.03
2022-07-31T16:02:18.235Z,7.23
2022-07-31T16:04:53.345Z,6.70
2022-07-31T16:08:30.446Z,8.37
2022-07-31T16:10:18.013Z,6.47
2022-07-31T16:12:46.006Z,6.00
2022-07-31T16:15:13.984Z,7.53
2022-07-31T16:17:41.967Z,6.50
2022-07-31T16:20:12.850Z,6.87
2022-07-31T16:22:51.233Z,131.90
2022-07-31T16:25:22.150Z,63.13
2022-07-31T16:27:49.692Z,26.10
2022-07-31T16:30:16.924Z,33.93
2022-07-31T16:32:44.545Z,41.60
2022-07-31T16:35:12.561Z,36.67
2022-07-31T16:37:50.069Z,23.60
2022-07-31T16:40:29.856Z,27.77
2022-07-31T16:43:51.067Z,27.00
2022-07-31T16:45:55.562Z,26.30
2022-07-31T16:48:23.393Z,29.83
2022-07-31T16:50:53.772Z,23.20
2022-07-31T16:54:11.525Z,18.27
2022-07-31T16:56:11.871Z,17.67
2022-07-31T16:58:39.086Z,20.57
2022-07-31T17:01:58.064Z,21.73
2022-07-31T17:04:01.035Z,15.03
2022-07-31T17:06:37.936Z,19.33
2022-07-31T17:09:16.930Z,14.83
2022-07-31T17:11:50.323Z,15.83
2022-07-31T17:14:19.112Z,17.30
2022-07-31T17:16:48.822Z,15.97
2022-07-31T17:19:42.333Z,14.23
2022-07-31T17:22:05.689Z,14.50
2022-07-31T17:24:36.749Z,17.20
2022-07-31T17:27:06.109Z,14.17
2022-07-31T17:29:39.725Z,13.60
2022-07-31T17:32:07.598Z,12.87
2022-07-31T17:34:35.647Z,25.37
2022-07-31T17:37:03.379Z,76.63
2022-07-31T17:39:31.349Z,172.37
2022-07-31T17:41:59.216Z,64.50
2022-07-31T17:44:26.443Z,48.77
2022-07-31T17:46:55.695Z,57.13
2022-07-31T17:49:25.779Z,50.03
2022-07-31T17:51:57.558Z,45.93
2022-07-31T17:54:28.909Z,42.93
2022-07-31T17:56:56.329Z,47.17
2022-07-31T17:59:23.479Z,36.53
2022-07-31T18:02:02.126Z,32.57
2022-07-31T18:04:31.351Z,28.30
2022-07-31T18:07:02.378Z,28.10
2022-07-31T18:09:32.850Z,26.33
2022-07-31T18:12:00.162Z,30.53
2022-07-31T18:14:27.661Z,15.77
2022-07-31T18:16:57.895Z,14.40
2022-07-31T18:19:25.070Z,15.63
2022-07-31T18:21:53.708Z,12.37
2022-07-31T18:24:22.431Z,13.27
2022-07-31T18:26:50.562Z,5.90
2022-07-31T18:29:18.931Z,5.10
2022-07-31T18:31:47.466Z,4.87
2022-07-31T18:34:20.273Z,3.30
2022-07-31T18:36:54.627Z,3.50
2022-07-31T18:39:24.395Z,5.83
2022-07-31T18:41:52.786Z,392.27
2022-07-31T18:44:22.655Z,355.10
2022-07-31T18:46:50.816Z,394.40
2022-07-31T18:51:00.327Z,381.23
2022-07-31T18:52:07.886Z,375.67
2022-07-31T18:54:35.516Z,258.60
2022-07-31T18:57:04.606Z,283.50
2022-07-31T18:59:31.846Z,235.53
2022-07-31T19:01:59.582Z,188.10
2022-07-31T19:04:27.207Z,153.37
2022-07-31T19:06:54.648Z,174.63
2022-07-31T19:09:25.811Z,121.63
2022-07-31T19:11:55.817Z,87.47
2022-07-31T19:14:28.773Z,67.10
2022-07-31T19:16:59.885Z,58.87
2022-07-31T19:19:52.513Z,118.00
2022-07-31T19:22:17.346Z,79.57
2022-07-31T19:24:44.540Z,40.50
2022-07-31T19:27:11.805Z,37.47
2022-07-31T19:29:39.006Z,46.73
2022-07-31T19:32:06.719Z,32.20
2022-07-31T19:34:34.728Z,32.80
2022-07-31T19:37:02.348Z,28.93
2022-07-31T19:39:29.547Z,24.17
2022-07-31T19:42:11.433Z,18.30
2022-07-31T19:44:39.896Z,17.53
2022-07-31T19:47:07.300Z,10.67
2022-07-31T19:49:37.950Z,16.73
2022-07-31T19:52:07.347Z,15.33
2022-07-31T19:54:34.902Z,10.77
2022-07-31T19:57:02.115Z,7.50
2022-07-31T19:59:32.069Z,7.00
2022-07-31T20:01:59.863Z,9.93
2022-07-31T20:04:27.017Z,9.40
2022-07-31T20:06:56.245Z,7.37
2022-07-31T20:09:26.861Z,9.03
2022-07-31T20:11:54.024Z,3.70
2022-07-31T20:14:21.168Z,4.53
2022-07-31T20:16:48.369Z,9.60
2022-07-31T20:19:15.711Z,6.50
2022-07-31T20:21:43.757Z,3.10
2022-07-31T20:24:11.910Z,5.10
2022-07-31T20:26:39.134Z,3.70
2022-07-31T20:29:06.411Z,3.10
2022-07-31T20:31:36.650Z,4.80
2022-07-31T20:34:03.846Z,5.60
2022-07-31T20:36:31.095Z,3.50
2022-07-31T20:38:58.920Z,4.40
2022-07-31T20:41:28.121Z,28.57
2022-07-31T20:43:55.347Z,4.33
2022-07-31T20:46:22.500Z,4.50
2022-07-31T20:48:50.124Z,4.10
2022-07-31T20:51:23.831Z,8.93
2022-07-31T20:53:52.235Z,4.53
2022-07-31T20:56:19.769Z,4.33
2022-07-31T20:58:51.380Z,4.50
2022-07-31T21:01:20.414Z,3.80
2022-07-31T21:03:48.054Z,5.13
2022-07-31T21:06:15.550Z,6.17
2022-07-31T21:08:42.724Z,4.87
2022-07-31T21:11:10.021Z,4.47
2022-07-31T21:13:38.103Z,5.83
2022-07-31T21:16:08.146Z,4.73
2022-07-31T21:18:37.877Z,5.10
2022-07-31T21:21:07.191Z,4.67
2022-07-31T21:23:35.045Z,5.00
2022-07-31T21:26:02.899Z,4.77
2022-07-31T21:28:30.296Z,4.90
2022-07-31T21:30:57.642Z,5.67
2022-07-31T21:33:26.543Z,13.67
2022-07-31T21:35:55.084Z,3.80
2022-07-31T21:38:22.430Z,4.43
2022-07-31T21:40:49.952Z,5.63
2022-07-31T21:43:22.170Z,5.00
2022-07-31T21:45:57.573Z,5.10
2022-07-31T21:48:29.701Z,4.97
2022-07-31T21:50:57.469Z,6.30
2022-07-31T21:53:24.691Z,6.50
2022-07-31T21:55:52.012Z,5.83
2022-07-31T21:58:20.130Z,6.13
2022-07-31T22:00:47.834Z,5.33
2022-07-31T22:03:15.694Z,8.10
2022-07-31T22:06:01.556Z,5.33
2022-07-31T22:08:28.742Z,6.37
2022-07-31T22:10:56.066Z,7.93
2022-07-31T22:13:23.154Z,7.03
2022-07-31T22:15:58.465Z,6.37
2022-07-31T22:18:33.285Z,6.63
2022-07-31T22:21:02.198Z,8.60
2022-07-31T22:23:29.857Z,6.50
2022-07-31T22:25:57.365Z,6.67
2022-07-31T22:28:25.655Z,7.53
2022-07-31T22:30:53.315Z,8.13
2022-07-31T22:33:21.299Z,7.50
2022-07-31T22:35:59.916Z,6.93
2022-07-31T22:38:31.516Z,6.50
2022-07-31T22:40:59.744Z,7.57
2022-07-31T22:44:10.268Z,7.03
2022-07-31T22:46:14.812Z,7.53
2022-07-31T22:48:42.107Z,7.90
2022-07-31T22:51:10.712Z,7.30
2022-07-31T22:53:41.735Z,7.70
2022-07-31T22:56:08.910Z,8.87
2022-07-31T22:58:36.101Z,8.63
2022-07-31T23:01:03.480Z,9.17
2022-07-31T23:03:30.619Z,7.63
2022-07-31T23:06:13.109Z,9.70
2022-07-31T23:08:53.647Z,8.10
2022-07-31T23:11:22.937Z,10.63
2022-07-31T23:13:50.685Z,8.70
2022-07-31T23:16:17.868Z,15.63
2022-07-31T23:18:45.028Z,8.90
2022-07-31T23:21:12.344Z,11.43
2022-07-31T23:23:39.556Z,9.00
2022-07-31T23:26:06.784Z,9.77
2022-07-31T23:28:34.243Z,10.10
2022-07-31T23:31:01.479Z,9.70
2022-07-31T23:33:28.646Z,10.60
2022-07-31T23:35:55.820Z,9.43
2022-07-31T23:38:23.107Z,10.70
2022-07-31T23:40:51.864Z,11.30
2022-07-31T23:43:20.973Z,13.50
2022-07-31T23:45:48.460Z,10.53
2022-07-31T23:48:16.132Z,12.30
2022-07-31T23:50:44.613Z,15.97
2022-07-31T23:53:11.899Z,13.20
2022-07-31T23:55:42.865Z,12.27
2022-07-31T23:58:10.781Z,12.80
